createdAt,value
2018-04-26T00:00:03.953Z,4.20
2018-04-26T00:01:04.131Z,4.60
2018-04-26T00:02:04.318Z,4.60
2018-04-26T00:03:04.500Z,4.70
2018-04-26T00:04:04.679Z,4.50
2018-04-26T00:05:04.859Z,4.50
2018-04-26T00:06:05.039Z,4.20
2018-04-26T00:07:05.214Z,4.20
2018-04-26T00:08:05.396Z,4.50
2018-04-26T00:09:05.577Z,4.20
2018-04-26T00:10:05.764Z,4.50
2018-04-26T00:11:05.937Z,4.20
2018-04-26T00:12:06.117Z,4.50
2018-04-26T00:13:06.295Z,4.50
2018-04-26T00:14:06.470Z,4.60
2018-04-26T00:15:06.650Z,4.50
2018-04-26T00:16:06.828Z,4.60
2018-04-26T00:17:07.014Z,4.40
2018-04-26T00:18:07.202Z,4.50
2018-04-26T00:19:07.383Z,4.00
2018-04-26T00:20:07.558Z,4.20
2018-04-26T00:21:07.742Z,4.30
2018-04-26T00:22:07.916Z,4.40
2018-04-26T00:23:08.095Z,4.50
2018-04-26T00:24:08.288Z,4.40
2018-04-26T00:25:08.473Z,3.90
2018-04-26T00:26:08.651Z,4.20
2018-04-26T00:27:08.838Z,4.60
2018-04-26T00:28:09.019Z,4.30
2018-04-26T00:29:09.203Z,3.90
2018-04-26T00:30:09.374Z,4.40
2018-04-26T00:31:09.554Z,4.20
2018-04-26T00:32:09.742Z,4.60
2018-04-26T00:33:09.916Z,4.30
2018-04-26T00:34:10.094Z,4.70
2018-04-26T00:35:10.270Z,4.40
2018-04-26T00:36:10.446Z,4.30
2018-04-26T00:37:10.633Z,4.40
2018-04-26T00:38:10.812Z,4.60
2018-04-26T00:39:10.992Z,4.60
2018-04-26T00:40:11.163Z,4.40
2018-04-26T00:41:11.346Z,4.50
2018-04-26T00:42:11.523Z,4.40
2018-04-26T00:43:11.702Z,4.30
2018-04-26T00:44:11.879Z,4.20
2018-04-26T00:45:12.054Z,4.50
2018-04-26T00:46:12.236Z,4.60
2018-04-26T00:47:12.420Z,4.30
2018-04-26T00:48:13.183Z,4.40
2018-04-26T00:49:12.723Z,4.70
2018-04-26T00:50:12.903Z,4.70
2018-04-26T00:51:13.082Z,4.70
2018-04-26T00:52:13.259Z,4.70
2018-04-26T00:53:13.446Z,4.60
2018-04-26T00:54:13.628Z,4.90
2018-04-26T00:55:13.801Z,5.00
2018-04-26T00:56:13.978Z,4.60
2018-04-26T00:57:14.153Z,4.70
2018-04-26T00:58:14.336Z,4.50
2018-04-26T00:59:14.517Z,4.70
2018-04-26T01:00:14.696Z,4.50
2018-04-26T01:01:14.876Z,4.50
2018-04-26T01:02:15.054Z,4.50
2018-04-26T01:03:15.228Z,4.80
2018-04-26T01:04:15.407Z,5.00
2018-04-26T01:05:15.588Z,5.00
2018-04-26T01:06:15.770Z,4.60
2018-04-26T01:07:15.958Z,5.10
2018-04-26T01:08:16.137Z,5.20
2018-04-26T01:09:16.319Z,5.00
2018-04-26T01:10:16.500Z,4.90
2018-04-26T01:11:16.677Z,5.00
2018-04-26T01:12:16.859Z,5.10
2018-04-26T01:13:17.037Z,5.30
2018-04-26T01:14:17.213Z,4.90
2018-04-26T01:15:17.387Z,5.10
2018-04-26T01:16:17.567Z,4.80
2018-04-26T01:17:17.747Z,4.70
2018-04-26T01:18:17.923Z,5.10
2018-04-26T01:19:18.102Z,4.80
2018-04-26T01:20:18.281Z,4.80
2018-04-26T01:21:18.459Z,5.00
2018-04-26T01:22:18.640Z,5.20
2018-04-26T01:23:18.825Z,4.90
2018-04-26T01:24:19.002Z,5.00
2018-04-26T01:25:19.178Z,5.50
2018-04-26T01:26:19.361Z,5.50
2018-04-26T01:27:19.538Z,5.70
2018-04-26T01:28:19.713Z,5.60
2018-04-26T01:29:19.898Z,5.40
2018-04-26T01:30:20.063Z,4.80
2018-04-26T01:31:20.246Z,4.80
2018-04-26T01:32:20.428Z,5.30
2018-04-26T01:33:20.617Z,5.20
2018-04-26T01:34:20.800Z,5.20
2018-04-26T01:35:20.977Z,4.90
2018-04-26T01:36:21.157Z,5.30
2018-04-26T01:37:21.331Z,5.60
2018-04-26T01:38:21.511Z,5.40
2018-04-26T01:39:21.689Z,5.20
2018-04-26T01:40:21.863Z,5.60
2018-04-26T01:41:22.041Z,5.60
2018-04-26T01:42:22.221Z,5.10
2018-04-26T01:43:22.393Z,5.20
2018-04-26T01:44:22.570Z,5.20
2018-04-26T01:45:22.755Z,5.50
2018-04-26T01:46:22.944Z,5.50
2018-04-26T01:47:23.127Z,5.40
2018-04-26T01:48:23.320Z,5.40
2018-04-26T01:49:23.504Z,5.40
2018-04-26T01:50:23.682Z,5.50
2018-04-26T01:51:23.857Z,5.30
2018-04-26T01:52:24.047Z,5.10
2018-04-26T01:53:24.218Z,4.70
2018-04-26T01:54:24.399Z,4.90
2018-04-26T01:55:24.576Z,4.90
2018-04-26T01:56:24.763Z,5.20
2018-04-26T01:57:24.938Z,5.40
2018-04-26T01:58:25.120Z,5.50
2018-04-26T01:59:25.300Z,5.20
2018-04-26T02:00:25.474Z,4.90
2018-04-26T02:01:25.655Z,4.90
2018-04-26T02:02:25.830Z,4.70
2018-04-26T02:03:26.023Z,4.80
2018-04-26T02:04:26.188Z,5.20
2018-04-26T02:05:26.362Z,5.10
2018-04-26T02:06:26.542Z,4.70
2018-04-26T02:07:26.726Z,4.70
2018-04-26T02:08:26.901Z,4.60
2018-04-26T02:09:27.074Z,4.70
2018-04-26T02:10:27.248Z,4.80
2018-04-26T02:11:27.437Z,4.40
2018-04-26T02:12:27.612Z,4.70
2018-04-26T02:13:27.795Z,4.70
2018-04-26T02:14:27.980Z,4.10
2018-04-26T02:15:28.231Z,4.90
2018-04-26T02:16:28.333Z,4.20
2018-04-26T02:17:28.517Z,4.00
2018-04-26T02:18:28.695Z,4.20
2018-04-26T02:19:28.868Z,4.50
2018-04-26T02:20:29.050Z,4.00
2018-04-26T02:21:29.225Z,4.00
2018-04-26T02:22:29.406Z,3.80
2018-04-26T02:23:29.589Z,3.90
2018-04-26T02:24:29.764Z,3.70
2018-04-26T02:25:29.943Z,4.30
2018-04-26T02:26:30.129Z,3.50
2018-04-26T02:27:30.325Z,3.70
2018-04-26T02:28:30.499Z,3.20
2018-04-26T02:29:30.678Z,3.50
2018-04-26T02:30:30.856Z,3.20
2018-04-26T02:31:31.026Z,2.90
2018-04-26T02:32:31.208Z,3.10
2018-04-26T02:33:31.385Z,2.90
2018-04-26T02:34:31.572Z,2.60
2018-04-26T02:35:31.747Z,3.50
2018-04-26T02:36:31.925Z,3.30
2018-04-26T02:37:32.099Z,3.00
2018-04-26T02:38:32.280Z,2.70
2018-04-26T02:39:32.481Z,2.80
2018-04-26T02:40:32.652Z,2.80
2018-04-26T02:41:32.876Z,2.90
2018-04-26T02:42:33.023Z,3.10
2018-04-26T02:43:33.203Z,2.90
2018-04-26T02:44:33.391Z,2.80
2018-04-26T02:45:33.568Z,2.60
2018-04-26T02:46:33.747Z,3.10
2018-04-26T02:47:33.928Z,2.70
2018-04-26T02:48:34.109Z,3.40
2018-04-26T02:49:34.302Z,2.60
2018-04-26T02:50:34.481Z,2.90
2018-04-26T02:51:34.661Z,2.40
2018-04-26T02:52:34.838Z,2.50
2018-04-26T02:53:35.019Z,2.70
2018-04-26T02:54:35.194Z,2.90
2018-04-26T02:55:35.382Z,2.40
2018-04-26T02:56:35.560Z,2.60
2018-04-26T02:57:35.742Z,2.60
2018-04-26T02:58:35.922Z,2.70
2018-04-26T02:59:36.102Z,2.50
2018-04-26T03:00:36.290Z,2.50
2018-04-26T03:01:36.467Z,2.30
2018-04-26T03:02:36.637Z,2.30
2018-04-26T03:03:36.816Z,2.40
2018-04-26T03:04:37.004Z,2.50
2018-04-26T03:05:37.183Z,2.50
2018-04-26T03:06:37.367Z,2.10
2018-04-26T03:07:37.543Z,2.20
2018-04-26T03:08:37.719Z,2.40
2018-04-26T03:09:37.899Z,2.30
2018-04-26T03:10:38.078Z,2.30
2018-04-26T03:11:38.257Z,2.30
2018-04-26T03:12:38.435Z,2.20
2018-04-26T03:13:38.621Z,2.20
2018-04-26T03:14:38.792Z,2.20
2018-04-26T03:15:38.970Z,2.30
2018-04-26T03:16:39.145Z,2.10
2018-04-26T03:17:39.316Z,2.30
2018-04-26T03:18:39.498Z,2.40
2018-04-26T03:19:39.674Z,2.50
2018-04-26T03:20:39.862Z,2.60
2018-04-26T03:21:40.040Z,2.20
2018-04-26T03:22:40.214Z,2.40
2018-04-26T03:23:40.395Z,2.50
2018-04-26T03:24:40.579Z,2.70
2018-04-26T03:25:40.751Z,2.20
2018-04-26T03:26:40.932Z,2.30
2018-04-26T03:27:41.108Z,2.40
2018-04-26T03:28:41.285Z,2.50
2018-04-26T03:29:41.464Z,2.30
2018-04-26T03:30:41.646Z,2.40
2018-04-26T03:31:41.823Z,2.40
2018-04-26T03:32:41.999Z,2.80
2018-04-26T03:33:42.177Z,2.60
2018-04-26T03:34:42.352Z,2.40
2018-04-26T03:35:42.524Z,2.60
2018-04-26T03:36:42.706Z,2.50
2018-04-26T03:37:42.882Z,2.50
2018-04-26T03:38:43.066Z,2.70
2018-04-26T03:39:43.244Z,2.70
2018-04-26T03:40:43.427Z,2.60
2018-04-26T03:41:43.605Z,2.60
2018-04-26T03:42:43.800Z,2.90
2018-04-26T03:43:43.974Z,2.60
2018-04-26T03:44:44.151Z,2.90
2018-04-26T03:45:44.331Z,2.50
2018-04-26T03:46:44.508Z,2.50
2018-04-26T03:47:44.687Z,2.60
2018-04-26T03:48:44.864Z,2.70
2018-04-26T03:49:45.050Z,2.80
2018-04-26T03:50:45.229Z,2.50
2018-04-26T03:51:45.418Z,2.60
2018-04-26T03:52:45.601Z,2.80
2018-04-26T03:53:45.782Z,2.70
2018-04-26T03:54:45.961Z,2.70
2018-04-26T03:55:46.147Z,2.50
2018-04-26T03:56:46.314Z,2.50
2018-04-26T03:57:46.493Z,2.60
2018-04-26T03:58:46.680Z,2.70
2018-04-26T03:59:46.865Z,2.50
2018-04-26T04:00:47.051Z,2.60
2018-04-26T04:01:47.224Z,2.50
2018-04-26T04:02:47.401Z,2.60
2018-04-26T04:03:47.577Z,2.60
2018-04-26T04:04:47.766Z,2.50
2018-04-26T04:05:47.946Z,2.60
2018-04-26T04:06:48.120Z,2.80
2018-04-26T04:07:48.296Z,2.60
2018-04-26T04:08:48.477Z,2.80
2018-04-26T04:09:48.663Z,2.50
2018-04-26T04:10:48.848Z,2.90
2018-04-26T04:11:49.022Z,2.60
2018-04-26T04:12:49.202Z,2.40
2018-04-26T04:13:49.388Z,2.50
2018-04-26T04:14:49.562Z,2.30
2018-04-26T04:15:49.731Z,2.50
2018-04-26T04:16:49.922Z,2.40
2018-04-26T04:17:50.088Z,2.60
2018-04-26T04:18:50.267Z,2.40
2018-04-26T04:19:50.519Z,2.70
2018-04-26T04:20:50.630Z,2.40
2018-04-26T04:21:50.806Z,2.40
2018-04-26T04:22:50.978Z,2.60
2018-04-26T04:23:51.169Z,2.50
2018-04-26T04:24:51.352Z,2.40
2018-04-26T04:25:51.539Z,2.70
2018-04-26T04:26:51.772Z,2.50
2018-04-26T04:27:51.888Z,2.40
2018-04-26T04:28:52.001Z,2.50
2018-04-26T04:29:52.174Z,2.50
2018-04-26T04:30:52.352Z,2.70
2018-04-26T04:31:52.533Z,2.20
2018-04-26T04:32:52.725Z,2.40
2018-04-26T04:33:52.904Z,2.80
2018-04-26T04:34:53.101Z,2.60
2018-04-26T04:35:53.299Z,2.40
2018-04-26T04:36:53.486Z,2.40
2018-04-26T04:37:53.663Z,2.60
2018-04-26T04:38:53.858Z,2.50
2018-04-26T04:39:54.036Z,2.30
2018-04-26T04:40:54.214Z,2.20
2018-04-26T04:41:54.394Z,2.20
2018-04-26T04:42:54.573Z,2.40
2018-04-26T04:43:54.769Z,2.30
2018-04-26T04:44:55.120Z,2.30
2018-04-26T04:45:55.072Z,2.20
2018-04-26T04:46:55.238Z,1.90
2018-04-26T04:47:55.455Z,2.20
2018-04-26T04:48:55.628Z,1.80
2018-04-26T04:49:55.799Z,2.20
2018-04-26T04:50:55.974Z,2.30
2018-04-26T04:51:56.167Z,2.50
2018-04-26T04:52:56.349Z,2.40
2018-04-26T04:53:56.524Z,2.20
2018-04-26T04:54:56.746Z,2.40
2018-04-26T04:55:56.919Z,2.70
2018-04-26T04:56:57.097Z,2.20
2018-04-26T04:57:57.273Z,2.20
2018-04-26T04:58:57.451Z,2.40
2018-04-26T04:59:57.639Z,2.20
2018-04-26T05:00:57.810Z,2.00
2018-04-26T05:01:58.001Z,2.30
2018-04-26T05:02:58.174Z,2.60
2018-04-26T05:03:58.361Z,2.20
2018-04-26T05:04:58.564Z,2.30
2018-04-26T05:05:58.632Z,2.10
2018-04-26T05:06:58.811Z,2.30
2018-04-26T05:07:59.010Z,1.90
2018-04-26T05:08:59.181Z,2.30
2018-04-26T05:09:59.361Z,2.20
2018-04-26T05:10:59.537Z,2.20
2018-04-26T05:11:59.718Z,2.10
2018-04-26T05:12:59.888Z,2.40
2018-04-26T05:14:00.093Z,2.50
2018-04-26T05:15:00.261Z,2.30
2018-04-26T05:16:00.444Z,2.20
2018-04-26T05:17:00.625Z,2.40
2018-04-26T05:18:00.805Z,2.10
2018-04-26T05:19:00.993Z,2.00
2018-04-26T05:20:01.208Z,2.50
2018-04-26T05:21:01.380Z,2.10
2018-04-26T05:22:01.585Z,2.20
2018-04-26T05:23:05.364Z,2.10
2018-04-26T05:24:04.012Z,2.20
2018-04-26T05:25:03.305Z,2.40
2018-04-26T05:26:05.400Z,2.40
2018-04-26T05:27:06.885Z,2.20
2018-04-26T05:28:05.878Z,2.00
2018-04-26T05:29:04.147Z,2.10
2018-04-26T05:30:07.135Z,1.80
2018-04-26T05:31:06.165Z,2.10
2018-04-26T05:32:06.231Z,2.00
2018-04-26T05:33:03.399Z,2.00
2018-04-26T05:34:03.577Z,2.10
2018-04-26T05:35:03.759Z,2.10
2018-04-26T05:36:03.938Z,1.80
2018-04-26T05:37:04.114Z,2.10
2018-04-26T05:38:04.296Z,2.10
2018-04-26T05:39:04.472Z,1.90
2018-04-26T05:40:04.656Z,2.20
2018-04-26T05:41:04.831Z,2.40
2018-04-26T05:42:05.007Z,2.10
2018-04-26T05:43:05.189Z,2.20
2018-04-26T05:44:05.371Z,2.10
2018-04-26T05:45:05.557Z,1.90
2018-04-26T05:46:05.741Z,1.80
2018-04-26T05:47:05.918Z,1.90
2018-04-26T05:48:06.096Z,1.90
2018-04-26T05:49:06.276Z,1.90
2018-04-26T05:50:06.460Z,1.80
2018-04-26T05:51:06.672Z,2.10
2018-04-26T05:52:06.822Z,2.30
2018-04-26T05:53:07.009Z,1.90
2018-04-26T05:54:07.198Z,2.00
2018-04-26T05:55:07.376Z,2.20
2018-04-26T05:56:07.596Z,2.40
2018-04-26T05:57:07.737Z,2.10
2018-04-26T05:58:07.917Z,1.80
2018-04-26T05:59:08.098Z,2.00
2018-04-26T06:00:08.277Z,2.10
2018-04-26T06:01:08.451Z,1.80
2018-04-26T06:02:08.635Z,2.10
2018-04-26T06:03:08.813Z,1.90
2018-04-26T06:04:08.993Z,2.10
2018-04-26T06:05:09.172Z,2.00
2018-04-26T06:06:09.373Z,2.10
2018-04-26T06:07:09.564Z,1.80
2018-04-26T06:08:09.759Z,1.90
2018-04-26T06:09:09.936Z,2.00
2018-04-26T06:10:10.153Z,1.90
2018-04-26T06:11:10.316Z,2.00
2018-04-26T06:12:10.510Z,2.00
2018-04-26T06:13:10.682Z,2.00
2018-04-26T06:14:10.868Z,2.40
2018-04-26T06:15:11.048Z,2.20
2018-04-26T06:16:11.233Z,2.00
2018-04-26T06:17:11.447Z,2.00
2018-04-26T06:18:11.605Z,1.90
2018-04-26T06:19:11.773Z,2.10
2018-04-26T06:20:11.952Z,2.50
2018-04-26T06:21:12.136Z,1.90
2018-04-26T06:22:12.355Z,2.20
2018-04-26T06:23:12.540Z,2.20
2018-04-26T06:24:12.722Z,2.10
2018-04-26T06:25:12.904Z,2.10
2018-04-26T06:26:13.083Z,2.20
2018-04-26T06:27:13.268Z,2.50
2018-04-26T06:28:13.454Z,2.00
2018-04-26T06:29:13.633Z,2.30
2018-04-26T06:30:13.810Z,2.00
2018-04-26T06:31:13.984Z,2.50
2018-04-26T06:32:14.162Z,2.30
2018-04-26T06:33:14.341Z,2.40
2018-04-26T06:34:14.525Z,2.30
2018-04-26T06:35:14.774Z,2.60
2018-04-26T06:36:14.830Z,2.00
2018-04-26T06:37:15.016Z,2.20
2018-04-26T06:38:15.204Z,2.30
2018-04-26T06:39:15.377Z,2.50
2018-04-26T06:40:15.561Z,2.30
2018-04-26T06:41:15.743Z,2.20
2018-04-26T06:42:15.935Z,2.70
2018-04-26T06:43:16.103Z,2.90
2018-04-26T06:44:16.425Z,2.80
2018-04-26T06:45:16.492Z,2.70
2018-04-26T06:46:16.687Z,2.70
2018-04-26T06:47:16.912Z,2.90
2018-04-26T06:48:17.088Z,2.80
2018-04-26T06:49:17.263Z,3.00
2018-04-26T06:50:17.445Z,3.00
2018-04-26T06:51:17.637Z,3.20
2018-04-26T06:52:17.817Z,3.20
2018-04-26T06:53:17.992Z,3.90
2018-04-26T06:54:18.171Z,3.50
2018-04-26T06:55:18.356Z,3.80
2018-04-26T06:56:18.531Z,3.80
2018-04-26T06:57:18.719Z,3.70
2018-04-26T06:58:18.894Z,3.10
2018-04-26T06:59:19.079Z,2.90
2018-04-26T07:00:19.259Z,2.40
2018-04-26T07:01:19.440Z,2.40
2018-04-26T07:02:19.621Z,2.60
2018-04-26T07:03:19.790Z,2.50
2018-04-26T07:04:19.980Z,2.40
2018-04-26T07:05:20.149Z,2.50
2018-04-26T07:06:20.323Z,2.20
2018-04-26T07:07:20.509Z,2.40
2018-04-26T07:08:20.686Z,2.20
2018-04-26T07:09:20.867Z,2.60
2018-04-26T07:10:21.044Z,2.90
2018-04-26T07:11:21.240Z,2.60
2018-04-26T07:12:21.444Z,2.40
2018-04-26T07:13:21.614Z,2.30
2018-04-26T07:14:21.800Z,2.20
2018-04-26T07:15:21.985Z,2.70
2018-04-26T07:16:22.215Z,2.30
2018-04-26T07:17:22.395Z,2.40
2018-04-26T07:18:22.578Z,2.40
2018-04-26T07:19:22.760Z,2.20
2018-04-26T07:20:22.933Z,2.20
2018-04-26T07:21:23.109Z,2.20
2018-04-26T07:22:23.298Z,2.30
2018-04-26T07:23:23.471Z,2.10
2018-04-26T07:24:23.655Z,2.60
2018-04-26T07:25:23.832Z,2.50
2018-04-26T07:26:24.023Z,2.50
2018-04-26T07:27:24.203Z,2.60
2018-04-26T07:28:24.381Z,2.50
2018-04-26T07:29:24.561Z,2.50
2018-04-26T07:30:24.737Z,2.40
2018-04-26T07:31:24.919Z,2.50
2018-04-26T07:32:25.104Z,2.40
2018-04-26T07:33:25.298Z,2.40
2018-04-26T07:34:25.578Z,2.10
2018-04-26T07:35:25.599Z,2.10
2018-04-26T07:36:25.783Z,1.90
2018-04-26T07:37:25.962Z,2.40
2018-04-26T07:38:26.151Z,2.20
2018-04-26T07:39:26.732Z,2.20
2018-04-26T07:40:27.918Z,2.10
2018-04-26T07:41:26.931Z,2.30
2018-04-26T07:42:27.247Z,2.30
2018-04-26T07:43:27.619Z,1.80
2018-04-26T07:44:27.572Z,1.80
2018-04-26T07:45:27.773Z,2.00
2018-04-26T07:46:27.806Z,2.10
2018-04-26T07:47:28.085Z,2.20
2018-04-26T07:48:28.145Z,2.10
2018-04-26T07:49:28.132Z,2.10
2018-04-26T07:50:28.888Z,2.10
2018-04-26T07:51:28.819Z,2.20
2018-04-26T07:52:28.955Z,1.90
2018-04-26T07:53:29.267Z,1.80
2018-04-26T07:54:29.562Z,2.00
2018-04-26T07:55:29.488Z,2.00
2018-04-26T07:56:29.736Z,1.90
2018-04-26T07:57:29.614Z,1.90
2018-04-26T07:58:30.420Z,1.60
2018-04-26T07:59:29.828Z,1.70
2018-04-26T08:00:29.934Z,1.70
2018-04-26T08:01:30.600Z,1.60
2018-04-26T08:02:30.525Z,1.80
2018-04-26T08:03:30.771Z,1.60
2018-04-26T08:04:30.861Z,1.50
2018-04-26T08:05:31.027Z,1.60
2018-04-26T08:06:31.111Z,1.50
2018-04-26T08:07:31.045Z,1.60
2018-04-26T08:08:31.585Z,1.70
2018-04-26T08:09:31.629Z,1.80
2018-04-26T08:10:31.906Z,1.60
2018-04-26T08:11:32.424Z,1.60
2018-04-26T08:12:32.131Z,1.90
2018-04-26T08:13:32.323Z,1.60
2018-04-26T08:14:32.448Z,1.70
2018-04-26T08:15:32.442Z,1.60
2018-04-26T08:16:32.644Z,1.40
2018-04-26T08:17:32.845Z,1.50
2018-04-26T08:18:33.032Z,1.50
2018-04-26T08:19:33.276Z,1.40
2018-04-26T08:20:33.465Z,1.40
2018-04-26T08:21:33.530Z,1.60
2018-04-26T08:22:33.723Z,1.40
2018-04-26T08:23:33.959Z,1.50
2018-04-26T08:24:34.505Z,1.40
2018-04-26T08:25:34.766Z,1.50
2018-04-26T08:26:34.499Z,1.40
2018-04-26T08:27:34.571Z,1.70
2018-04-26T08:28:34.759Z,1.50
2018-04-26T08:29:34.984Z,1.70
2018-04-26T08:30:35.552Z,1.90
2018-04-26T08:31:35.363Z,1.40
2018-04-26T08:32:35.586Z,1.40
2018-04-26T08:33:35.794Z,1.20
2018-04-26T08:34:36.003Z,1.50
2018-04-26T08:35:36.204Z,1.20
2018-04-26T08:36:36.409Z,1.50
2018-04-26T08:37:36.618Z,1.40
2018-04-26T08:38:36.841Z,1.30
2018-04-26T08:39:37.006Z,1.30
2018-04-26T08:40:37.199Z,1.30
2018-04-26T08:41:37.475Z,1.50
2018-04-26T08:42:37.614Z,1.30
2018-04-26T08:43:37.798Z,1.60
2018-04-26T08:44:37.997Z,1.20
2018-04-26T08:45:38.233Z,1.60
2018-04-26T08:46:38.415Z,1.60
2018-04-26T08:47:38.586Z,1.50
2018-04-26T08:48:38.775Z,1.60
2018-04-26T08:49:38.993Z,1.30
2018-04-26T08:50:39.178Z,1.30
2018-04-26T08:51:39.484Z,1.30
2018-04-26T08:52:39.502Z,1.40
2018-04-26T08:53:39.795Z,1.30
2018-04-26T08:54:39.820Z,1.40
2018-04-26T08:55:40.283Z,1.60
2018-04-26T08:56:40.687Z,1.50
2018-04-26T08:57:41.622Z,1.40
2018-04-26T08:58:40.655Z,1.60
2018-04-26T08:59:40.800Z,1.60
2018-04-26T09:00:40.904Z,1.80
2018-04-26T09:01:41.239Z,1.90
2018-04-26T09:02:41.407Z,2.00
2018-04-26T09:03:41.499Z,1.50
2018-04-26T09:04:41.692Z,1.50
2018-04-26T09:05:41.912Z,1.70
2018-04-26T09:06:42.197Z,1.80
2018-04-26T09:07:43.610Z,1.70
2018-04-26T09:08:42.489Z,1.50
2018-04-26T09:09:43.348Z,1.80
2018-04-26T09:10:42.913Z,1.60
2018-04-26T09:11:43.120Z,1.60
2018-04-26T09:12:43.306Z,2.10
2018-04-26T09:13:43.501Z,2.00
2018-04-26T09:14:43.702Z,1.90
2018-04-26T09:15:43.987Z,1.70
2018-04-26T09:16:44.093Z,1.80
2018-04-26T09:17:44.284Z,1.90
2018-04-26T09:18:44.479Z,1.80
2018-04-26T09:19:44.678Z,2.20
2018-04-26T09:20:44.871Z,2.20
2018-04-26T09:21:45.069Z,2.00
2018-04-26T09:22:45.253Z,1.90
2018-04-26T09:23:45.453Z,1.80
2018-04-26T09:24:45.638Z,2.10
2018-04-26T09:25:45.849Z,2.00
2018-04-26T09:26:46.036Z,2.40
2018-04-26T09:27:46.227Z,2.40
2018-04-26T09:28:46.426Z,2.40
2018-04-26T09:29:46.634Z,2.50
2018-04-26T09:30:46.824Z,2.50
2018-04-26T09:31:47.076Z,2.30
2018-04-26T09:32:47.174Z,2.00
2018-04-26T09:33:47.365Z,2.50
2018-04-26T09:34:47.558Z,2.30
2018-04-26T09:35:47.773Z,2.20
2018-04-26T09:36:48.044Z,2.30
2018-04-26T09:37:48.248Z,2.10
2018-04-26T09:38:48.429Z,2.90
2018-04-26T09:39:48.613Z,2.50
2018-04-26T09:40:48.679Z,2.30
2018-04-26T09:41:48.940Z,1.90
2018-04-26T09:42:49.124Z,2.10
2018-04-26T09:43:49.453Z,2.10
2018-04-26T09:44:49.322Z,1.90
2018-04-26T09:45:49.590Z,1.80
2018-04-26T09:46:50.027Z,1.80
2018-04-26T09:47:50.205Z,1.70
2018-04-26T09:48:50.328Z,1.80
2018-04-26T09:49:50.408Z,2.00
2018-04-26T09:50:50.560Z,2.20
2018-04-26T09:51:50.541Z,2.00
2018-04-26T09:52:50.781Z,1.80
2018-04-26T09:53:51.928Z,2.00
2018-04-26T09:54:52.452Z,1.80
2018-04-26T09:55:51.872Z,1.90
2018-04-26T09:56:51.473Z,2.00
2018-04-26T09:57:51.650Z,1.80
2018-04-26T09:58:51.848Z,2.10
2018-04-26T09:59:52.054Z,2.00
2018-04-26T10:00:52.229Z,2.00
2018-04-26T10:01:52.495Z,2.20
2018-04-26T10:02:52.643Z,2.20
2018-04-26T10:03:52.743Z,2.30
2018-04-26T10:04:52.965Z,2.40
2018-04-26T10:05:53.125Z,2.20
2018-04-26T10:06:54.905Z,2.00
2018-04-26T10:07:53.460Z,1.80
2018-04-26T10:08:53.790Z,1.50
2018-04-26T10:09:53.905Z,1.50
2018-04-26T10:10:54.627Z,1.60
2018-04-26T10:11:54.319Z,1.30
2018-04-26T10:12:54.549Z,1.30
2018-04-26T10:13:54.977Z,1.40
2018-04-26T10:14:54.835Z,1.60
2018-04-26T10:15:55.017Z,1.40
2018-04-26T10:16:55.254Z,1.40
2018-04-26T10:17:55.432Z,1.30
2018-04-26T10:18:55.603Z,1.80
2018-04-26T10:19:55.799Z,2.00
2018-04-26T10:20:56.025Z,1.70
2018-04-26T10:21:56.207Z,1.80
2018-04-26T10:22:56.465Z,1.60
2018-04-26T10:23:56.609Z,1.60
2018-04-26T10:24:56.800Z,1.40
2018-04-26T10:25:56.980Z,1.60
2018-04-26T10:26:57.170Z,1.50
2018-04-26T10:27:57.423Z,1.70
2018-04-26T10:28:57.759Z,1.70
2018-04-26T10:29:57.799Z,1.60
2018-04-26T10:30:57.873Z,1.60
2018-04-26T10:31:57.996Z,1.80
2018-04-26T10:32:58.170Z,1.60
2018-04-26T10:33:58.351Z,1.50
2018-04-26T10:34:58.535Z,1.50
2018-04-26T10:35:58.725Z,1.90
2018-04-26T10:36:58.918Z,1.60
2018-04-26T10:37:59.102Z,1.40
2018-04-26T10:38:59.291Z,1.90
2018-04-26T10:39:59.485Z,1.70
2018-04-26T10:40:59.674Z,1.70
2018-04-26T10:41:59.866Z,1.80
2018-04-26T10:43:00.045Z,2.00
2018-04-26T10:44:00.239Z,1.80
2018-04-26T10:45:00.421Z,1.90
2018-04-26T10:46:00.607Z,1.80
2018-04-26T10:47:00.788Z,2.10
2018-04-26T10:48:00.968Z,2.10
2018-04-26T10:49:01.148Z,2.30
2018-04-26T10:50:01.333Z,2.10
2018-04-26T10:51:01.516Z,2.10
2018-04-26T10:52:04.380Z,1.90
2018-04-26T10:53:04.486Z,1.90
2018-04-26T10:54:02.496Z,2.10
2018-04-26T10:55:02.886Z,1.90
2018-04-26T10:56:02.928Z,2.40
2018-04-26T10:57:02.932Z,2.20
2018-04-26T10:58:03.027Z,2.20
2018-04-26T10:59:03.286Z,2.30
2018-04-26T11:00:03.475Z,2.50
2018-04-26T11:01:03.270Z,2.30
2018-04-26T11:02:03.453Z,2.40
2018-04-26T11:03:03.638Z,2.50
2018-04-26T11:04:03.818Z,2.60
2018-04-26T11:05:04.005Z,2.40
2018-04-26T11:06:04.232Z,2.50
2018-04-26T11:07:04.400Z,2.70
2018-04-26T11:08:04.580Z,2.50
2018-04-26T11:09:04.792Z,2.90
2018-04-26T11:10:04.946Z,2.70
2018-04-26T11:11:05.131Z,2.60
2018-04-26T11:12:05.311Z,2.70
2018-04-26T11:13:05.517Z,2.80
2018-04-26T11:14:05.696Z,2.90
2018-04-26T11:15:05.880Z,2.90
2018-04-26T11:16:06.073Z,2.90
2018-04-26T11:17:06.255Z,2.80
2018-04-26T11:18:06.457Z,2.80
2018-04-26T11:19:06.671Z,2.90
2018-04-26T11:20:07.274Z,2.90
2018-04-26T11:21:07.053Z,3.20
2018-04-26T11:22:07.783Z,2.80
2018-04-26T11:23:07.988Z,3.00
2018-04-26T11:24:08.392Z,2.70
2018-04-26T11:25:08.178Z,2.80
2018-04-26T11:26:08.638Z,3.00
2018-04-26T11:27:08.607Z,3.30
2018-04-26T11:28:08.392Z,3.30
2018-04-26T11:29:08.572Z,3.30
2018-04-26T11:30:09.361Z,3.10
2018-04-26T11:31:09.367Z,3.10
2018-04-26T11:32:09.602Z,2.60
2018-04-26T11:33:09.685Z,2.70
2018-04-26T11:34:09.884Z,3.20
2018-04-26T11:35:10.093Z,2.80
2018-04-26T11:36:10.227Z,2.90
2018-04-26T11:37:10.498Z,2.90
2018-04-26T11:38:10.283Z,2.80
2018-04-26T11:39:10.653Z,2.80
2018-04-26T11:40:11.014Z,3.10
2018-04-26T11:41:10.871Z,2.70
2018-04-26T11:42:10.992Z,3.20
2018-04-26T11:43:11.457Z,2.80
2018-04-26T11:44:11.867Z,2.80
2018-04-26T11:45:11.333Z,3.10
2018-04-26T11:46:11.691Z,3.10
2018-04-26T11:47:11.640Z,3.20
2018-04-26T11:48:11.857Z,3.00
2018-04-26T11:49:12.005Z,3.00
2018-04-26T11:50:12.215Z,2.90
2018-04-26T11:51:12.488Z,2.90
2018-04-26T11:52:12.623Z,3.10
2018-04-26T11:53:12.666Z,2.80
2018-04-26T11:54:12.867Z,2.80
2018-04-26T11:55:13.673Z,2.90
2018-04-26T11:56:13.273Z,2.70
2018-04-26T11:57:13.814Z,2.80
2018-04-26T11:58:13.845Z,3.00
2018-04-26T11:59:14.027Z,2.90
2018-04-26T12:00:13.827Z,2.80
2018-04-26T12:01:14.675Z,2.80
2018-04-26T12:02:15.437Z,2.70
2018-04-26T12:03:15.943Z,3.10
2018-04-26T12:04:15.020Z,3.10
2018-04-26T12:05:15.152Z,3.40
2018-04-26T12:06:15.478Z,3.00
2018-04-26T12:07:15.555Z,3.00
2018-04-26T12:08:15.882Z,2.90
2018-04-26T12:09:16.013Z,3.30
2018-04-26T12:10:16.067Z,3.10
2018-04-26T12:11:16.057Z,2.90
2018-04-26T12:12:16.116Z,2.90
2018-04-26T12:13:16.506Z,3.00
2018-04-26T12:14:17.018Z,2.90
2018-04-26T12:15:16.636Z,3.00
2018-04-26T12:16:16.854Z,3.30
2018-04-26T12:17:17.240Z,3.30
2018-04-26T12:18:17.246Z,2.80
2018-04-26T12:19:17.374Z,3.50
2018-04-26T12:20:17.553Z,2.90
2018-04-26T12:21:17.833Z,3.10
2018-04-26T12:22:18.102Z,3.00
2018-04-26T12:23:17.936Z,3.00
2018-04-26T12:24:18.109Z,3.00
2018-04-26T12:25:18.288Z,3.00
2018-04-26T12:26:18.549Z,2.80
2018-04-26T12:27:18.838Z,2.60
2018-04-26T12:28:20.406Z,2.50
2018-04-26T12:29:22.619Z,2.40
2018-04-26T12:30:19.187Z,2.20
2018-04-26T12:31:19.554Z,2.50
2018-04-26T12:32:19.931Z,2.30
2018-04-26T12:33:19.994Z,2.10
2018-04-26T12:34:19.761Z,2.30
2018-04-26T12:35:20.543Z,2.20
2018-04-26T12:36:20.358Z,2.00
2018-04-26T12:37:20.331Z,2.10
2018-04-26T12:38:20.732Z,1.80
2018-04-26T12:39:20.719Z,1.80
2018-04-26T12:40:21.097Z,1.80
2018-04-26T12:41:21.108Z,1.90
2018-04-26T12:42:21.824Z,2.10
2018-04-26T12:43:21.460Z,2.10
2018-04-26T12:44:22.447Z,2.30
2018-04-26T12:45:22.249Z,2.10
2018-04-26T12:46:22.165Z,2.00
2018-04-26T12:47:23.970Z,2.20
2018-04-26T12:48:22.907Z,2.10
2018-04-26T12:49:22.463Z,2.00
2018-04-26T12:50:23.573Z,2.30
2018-04-26T12:51:24.242Z,1.90
2018-04-26T12:52:23.350Z,1.90
2018-04-26T12:53:23.224Z,1.90
2018-04-26T12:54:23.405Z,2.10
2018-04-26T12:55:23.617Z,2.20
2018-04-26T12:56:23.836Z,2.00
2018-04-26T12:57:24.047Z,2.00
2018-04-26T12:58:24.304Z,2.20
2018-04-26T12:59:24.379Z,2.40
2018-04-26T13:00:24.618Z,2.40
2018-04-26T13:01:24.862Z,2.30
2018-04-26T13:02:24.936Z,2.50
2018-04-26T13:03:26.146Z,2.60
2018-04-26T13:04:27.648Z,2.40
2018-04-26T13:05:26.732Z,2.40
2018-04-26T13:06:26.829Z,2.70
2018-04-26T13:07:26.114Z,2.10
2018-04-26T13:08:25.987Z,2.20
2018-04-26T13:09:26.175Z,2.50
2018-04-26T13:10:26.466Z,2.20
2018-04-26T13:11:26.527Z,2.50
2018-04-26T13:12:28.325Z,2.20
2018-04-26T13:13:27.022Z,2.30
2018-04-26T13:14:27.152Z,2.00
2018-04-26T13:15:27.612Z,2.10
2018-04-26T13:16:27.468Z,2.20
2018-04-26T13:17:27.974Z,2.20
2018-04-26T13:18:27.757Z,1.90
2018-04-26T13:19:27.954Z,1.80
2018-04-26T13:20:28.162Z,1.70